sensor_id;sensor_type;location;lat;lon;timestamp;P1;durP1;ratioP1;P2;durP2;ratioP2
43678;SDS011;29279;50.858;4.392;2023-04-24T00:00:08;28.73;;;16.15;;
43678;SDS011;29279;50.858;4.392;2023-04-24T00:02:34;27.33;;;15.52;;
43678;SDS011;29279;50.858;4.392;2023-04-24T00:05:03;35.60;;;16.23;;
43678;SDS011;29279;50.858;4.392;2023-04-24T00:07:30;42.15;;;16.95;;
43678;SDS011;29279;50.858;4.392;2023-04-24T00:09:56;34.67;;;16.38;;
43678;SDS011;29279;50.858;4.392;2023-04-24T00:12:21;27.90;;;14.25;;
43678;SDS011;29279;50.858;4.392;2023-04-24T00:14:47;33.50;;;15.32;;
43678;SDS011;29279;50.858;4.392;2023-04-24T00:17:13;34.22;;;15.57;;
43678;SDS011;29279;50.858;4.392;2023-04-24T00:19:38;30.33;;;15.63;;
43678;SDS011;29279;50.858;4.392;2023-04-24T00:22:04;33.03;;;16.33;;
43678;SDS011;29279;50.858;4.392;2023-04-24T00:24:30;40.15;;;16.45;;
43678;SDS011;29279;50.858;4.392;2023-04-24T00:26:56;25.67;;;15.77;;
43678;SDS011;29279;50.858;4.392;2023-04-24T00:29:22;33.65;;;15.98;;
43678;SDS011;29279;50.858;4.392;2023-04-24T00:31:47;28.02;;;15.05;;
43678;SDS011;29279;50.858;4.392;2023-04-24T00:34:13;36.50;;;15.88;;
43678;SDS011;29279;50.858;4.392;2023-04-24T00:36:39;31.55;;;16.42;;
43678;SDS011;29279;50.858;4.392;2023-04-24T00:39:05;41.45;;;16.85;;
43678;SDS011;29279;50.858;4.392;2023-04-24T00:41:33;32.08;;;16.40;;
43678;SDS011;29279;50.858;4.392;2023-04-24T00:44:00;42.22;;;16.67;;
43678;SDS011;29279;50.858;4.392;2023-04-24T00:46:25;29.23;;;15.75;;
43678;SDS011;29279;50.858;4.392;2023-04-24T00:48:51;39.08;;;16.60;;
43678;SDS011;29279;50.858;4.392;2023-04-24T00:51:17;31.48;;;15.57;;
43678;SDS011;29279;50.858;4.392;2023-04-24T00:53:43;39.90;;;17.33;;
43678;SDS011;29279;50.858;4.392;2023-04-24T00:56:09;27.48;;;15.35;;
43678;SDS011;29279;50.858;4.392;2023-04-24T00:58:35;39.47;;;16.58;;
43678;SDS011;29279;50.858;4.392;2023-04-24T01:01:02;30.48;;;16.45;;
43678;SDS011;29279;50.858;4.392;2023-04-24T01:03:32;37.22;;;16.80;;
43678;SDS011;29279;50.858;4.392;2023-04-24T01:05:58;31.52;;;16.13;;
43678;SDS011;29279;50.858;4.392;2023-04-24T01:08:24;33.65;;;17.33;;
43678;SDS011;29279;50.858;4.392;2023-04-24T01:10:53;37.67;;;17.00;;
43678;SDS011;29279;50.858;4.392;2023-04-24T01:13:19;39.08;;;17.35;;
43678;SDS011;29279;50.858;4.392;2023-04-24T01:15:46;30.42;;;17.85;;
43678;SDS011;29279;50.858;4.392;2023-04-24T01:18:12;30.45;;;16.60;;
43678;SDS011;29279;50.858;4.392;2023-04-24T01:20:39;33.75;;;16.80;;
43678;SDS011;29279;50.858;4.392;2023-04-24T01:23:06;30.73;;;17.92;;
43678;SDS011;29279;50.858;4.392;2023-04-24T01:25:32;35.63;;;17.70;;
43678;SDS011;29279;50.858;4.392;2023-04-24T01:27:58;31.70;;;16.20;;
43678;SDS011;29279;50.858;4.392;2023-04-24T01:30:24;36.50;;;17.90;;
43678;SDS011;29279;50.858;4.392;2023-04-24T01:32:51;38.92;;;17.83;;
43678;SDS011;29279;50.858;4.392;2023-04-24T01:35:17;29.98;;;16.45;;
43678;SDS011;29279;50.858;4.392;2023-04-24T01:37:44;31.58;;;16.75;;
43678;SDS011;29279;50.858;4.392;2023-04-24T01:40:10;28.52;;;15.15;;
43678;SDS011;29279;50.858;4.392;2023-04-24T01:42:35;26.95;;;14.27;;
43678;SDS011;29279;50.858;4.392;2023-04-24T01:45:01;23.92;;;13.82;;
43678;SDS011;29279;50.858;4.392;2023-04-24T01:47:32;25.67;;;14.48;;
43678;SDS011;29279;50.858;4.392;2023-04-24T01:49:58;22.38;;;12.82;;
43678;SDS011;29279;50.858;4.392;2023-04-24T01:52:24;21.85;;;12.73;;
43678;SDS011;29279;50.858;4.392;2023-04-24T01:54:49;29.02;;;14.05;;
43678;SDS011;29279;50.858;4.392;2023-04-24T01:57:15;27.38;;;14.60;;
43678;SDS011;29279;50.858;4.392;2023-04-24T01:59:44;25.95;;;15.15;;
43678;SDS011;29279;50.858;4.392;2023-04-24T02:02:10;27.30;;;16.27;;
43678;SDS011;29279;50.858;4.392;2023-04-24T02:04:35;27.85;;;15.98;;
43678;SDS011;29279;50.858;4.392;2023-04-24T02:07:01;26.58;;;16.33;;
43678;SDS011;29279;50.858;4.392;2023-04-24T02:09:27;23.42;;;15.30;;
43678;SDS011;29279;50.858;4.392;2023-04-24T02:11:52;26.10;;;14.88;;
43678;SDS011;29279;50.858;4.392;2023-04-24T02:14:18;27.95;;;15.20;;
43678;SDS011;29279;50.858;4.392;2023-04-24T02:16:44;29.95;;;15.57;;
43678;SDS011;29279;50.858;4.392;2023-04-24T02:19:10;32.90;;;16.92;;
43678;SDS011;29279;50.858;4.392;2023-04-24T02:21:36;31.00;;;16.55;;
43678;SDS011;29279;50.858;4.392;2023-04-24T02:24:02;30.13;;;17.67;;
43678;SDS011;29279;50.858;4.392;2023-04-24T02:26:27;29.50;;;13.20;;
43678;SDS011;29279;50.858;4.392;2023-04-24T02:28:53;28.80;;;16.60;;
43678;SDS011;29279;50.858;4.392;2023-04-24T02:31:19;23.73;;;14.98;;
43678;SDS011;29279;50.858;4.392;2023-04-24T02:33:45;29.08;;;15.88;;
43678;SDS011;29279;50.858;4.392;2023-04-24T02:36:10;30.27;;;16.52;;
43678;SDS011;29279;50.858;4.392;2023-04-24T02:38:36;30.08;;;15.13;;
43678;SDS011;29279;50.858;4.392;2023-04-24T02:41:02;29.52;;;15.70;;
43678;SDS011;29279;50.858;4.392;2023-04-24T02:43:31;24.58;;;16.88;;
43678;SDS011;29279;50.858;4.392;2023-04-24T02:45:57;28.17;;;15.70;;
43678;SDS011;29279;50.858;4.392;2023-04-24T02:48:23;30.85;;;16.50;;
43678;SDS011;29279;50.858;4.392;2023-04-24T02:50:49;26.55;;;16.13;;
43678;SDS011;29279;50.858;4.392;2023-04-24T02:53:15;31.77;;;17.23;;
43678;SDS011;29279;50.858;4.392;2023-04-24T02:55:41;25.33;;;16.35;;
43678;SDS011;29279;50.858;4.392;2023-04-24T02:58:07;28.25;;;15.82;;
43678;SDS011;29279;50.858;4.392;2023-04-24T03:00:32;26.88;;;15.98;;
43678;SDS011;29279;50.858;4.392;2023-04-24T03:02:58;26.05;;;14.57;;
43678;SDS011;29279;50.858;4.392;2023-04-24T03:05:24;32.55;;;15.40;;
43678;SDS011;29279;50.858;4.392;2023-04-24T03:07:50;34.78;;;15.13;;
43678;SDS011;29279;50.858;4.392;2023-04-24T03:10:17;28.27;;;13.98;;
43678;SDS011;29279;50.858;4.392;2023-04-24T03:12:43;22.30;;;14.02;;
43678;SDS011;29279;50.858;4.392;2023-04-24T03:15:09;23.02;;;15.27;;
43678;SDS011;29279;50.858;4.392;2023-04-24T03:17:35;29.02;;;15.13;;
43678;SDS011;29279;50.858;4.392;2023-04-24T03:20:01;25.90;;;14.43;;
43678;SDS011;29279;50.858;4.392;2023-04-24T03:22:30;24.55;;;14.30;;
43678;SDS011;29279;50.858;4.392;2023-04-24T03:24:57;27.15;;;13.85;;
43678;SDS011;29279;50.858;4.392;2023-04-24T03:27:23;25.00;;;14.45;;
43678;SDS011;29279;50.858;4.392;2023-04-24T03:29:49;29.73;;;15.90;;
43678;SDS011;29279;50.858;4.392;2023-04-24T03:32:19;23.20;;;13.82;;
43678;SDS011;29279;50.858;4.392;2023-04-24T03:34:48;29.17;;;14.10;;
43678;SDS011;29279;50.858;4.392;2023-04-24T03:37:14;25.70;;;13.35;;
43678;SDS011;29279;50.858;4.392;2023-04-24T03:39:41;23.13;;;14.27;;
43678;SDS011;29279;50.858;4.392;2023-04-24T03:42:06;25.20;;;13.68;;
43678;SDS011;29279;50.858;4.392;2023-04-24T03:44:33;22.77;;;11.70;;
43678;SDS011;29279;50.858;4.392;2023-04-24T03:46:59;26.45;;;11.07;;
43678;SDS011;29279;50.858;4.392;2023-04-24T03:49:25;24.80;;;11.70;;
43678;SDS011;29279;50.858;4.392;2023-04-24T03:51:51;14.88;;;10.75;;
43678;SDS011;29279;50.858;4.392;2023-04-24T03:54:17;19.98;;;9.63;;
43678;SDS011;29279;50.858;4.392;2023-04-24T03:56:43;15.48;;;10.80;;
43678;SDS011;29279;50.858;4.392;2023-04-24T03:59:09;12.68;;;9.18;;
43678;SDS011;29279;50.858;4.392;2023-04-24T04:01:35;16.20;;;9.13;;
43678;SDS011;29279;50.858;4.392;2023-04-24T04:04:04;13.45;;;9.27;;
43678;SDS011;29279;50.858;4.392;2023-04-24T04:06:31;13.35;;;9.02;;
43678;SDS011;29279;50.858;4.392;2023-04-24T04:08:57;12.48;;;8.48;;
43678;SDS011;29279;50.858;4.392;2023-04-24T04:11:23;14.30;;;8.52;;
43678;SDS011;29279;50.858;4.392;2023-04-24T04:13:49;10.02;;;7.20;;
43678;SDS011;29279;50.858;4.392;2023-04-24T04:16:15;13.95;;;7.18;;
43678;SDS011;29279;50.858;4.392;2023-04-24T04:18:44;11.63;;;7.68;;
43678;SDS011;29279;50.858;4.392;2023-04-24T04:21:10;15.10;;;8.40;;
43678;SDS011;29279;50.858;4.392;2023-04-24T04:23:36;19.33;;;9.20;;
43678;SDS011;29279;50.858;4.392;2023-04-24T04:26:02;16.30;;;8.38;;
43678;SDS011;29279;50.858;4.392;2023-04-24T04:28:28;13.75;;;8.30;;
43678;SDS011;29279;50.858;4.392;2023-04-24T04:30:55;11.57;;;7.22;;
43678;SDS011;29279;50.858;4.392;2023-04-24T04:33:22;11.70;;;7.40;;
43678;SDS011;29279;50.858;4.392;2023-04-24T04:35:48;13.20;;;7.00;;
43678;SDS011;29279;50.858;4.392;2023-04-24T04:38:17;13.20;;;7.68;;
43678;SDS011;29279;50.858;4.392;2023-04-24T04:40:43;14.88;;;7.95;;
43678;SDS011;29279;50.858;4.392;2023-04-24T04:43:09;12.45;;;7.60;;
43678;SDS011;29279;50.858;4.392;2023-04-24T04:45:36;11.02;;;7.38;;
43678;SDS011;29279;50.858;4.392;2023-04-24T04:48:03;15.20;;;7.10;;
43678;SDS011;29279;50.858;4.392;2023-04-24T04:50:32;13.65;;;8.52;;
43678;SDS011;29279;50.858;4.392;2023-04-24T04:52:58;13.00;;;8.27;;
43678;SDS011;29279;50.858;4.392;2023-04-24T04:55:23;24.38;;;9.25;;
43678;SDS011;29279;50.858;4.392;2023-04-24T04:57:49;16.30;;;9.25;;
43678;SDS011;29279;50.858;4.392;2023-04-24T05:00:15;21.83;;;10.80;;
43678;SDS011;29279;50.858;4.392;2023-04-24T05:02:41;20.85;;;10.88;;
43678;SDS011;29279;50.858;4.392;2023-04-24T05:05:07;19.02;;;11.98;;
43678;SDS011;29279;50.858;4.392;2023-04-24T05:07:35;20.27;;;11.40;;
43678;SDS011;29279;50.858;4.392;2023-04-24T05:10:01;21.65;;;12.18;;
43678;SDS011;29279;50.858;4.392;2023-04-24T05:12:27;22.58;;;12.55;;
43678;SDS011;29279;50.858;4.392;2023-04-24T05:14:53;31.27;;;13.85;;
43678;SDS011;29279;50.858;4.392;2023-04-24T05:17:19;20.85;;;12.68;;
43678;SDS011;29279;50.858;4.392;2023-04-24T05:19:45;24.75;;;13.35;;
43678;SDS011;29279;50.858;4.392;2023-04-24T05:22:11;25.45;;;13.60;;
43678;SDS011;29279;50.858;4.392;2023-04-24T05:24:37;30.08;;;13.07;;
43678;SDS011;29279;50.858;4.392;2023-04-24T05:27:03;26.15;;;14.95;;
43678;SDS011;29279;50.858;4.392;2023-04-24T05:29:32;22.98;;;13.20;;
43678;SDS011;29279;50.858;4.392;2023-04-24T05:31:58;27.38;;;13.77;;
43678;SDS011;29279;50.858;4.392;2023-04-24T05:34:24;27.23;;;13.52;;
43678;SDS011;29279;50.858;4.392;2023-04-24T05:36:50;20.73;;;13.43;;
43678;SDS011;29279;50.858;4.392;2023-04-24T05:39:16;22.00;;;13.15;;
43678;SDS011;29279;50.858;4.392;2023-04-24T05:41:42;36.38;;;14.90;;
43678;SDS011;29279;50.858;4.392;2023-04-24T05:44:08;27.17;;;14.32;;
43678;SDS011;29279;50.858;4.392;2023-04-24T05:46:33;22.67;;;13.60;;
43678;SDS011;29279;50.858;4.392;2023-04-24T05:48:59;23.52;;;13.38;;
43678;SDS011;29279;50.858;4.392;2023-04-24T05:51:25;24.42;;;13.73;;
43678;SDS011;29279;50.858;4.392;2023-04-24T05:53:51;31.88;;;14.30;;
43678;SDS011;29279;50.858;4.392;2023-04-24T05:56:17;25.92;;;14.85;;
43678;SDS011;29279;50.858;4.392;2023-04-24T05:58:43;22.00;;;13.85;;
43678;SDS011;29279;50.858;4.392;2023-04-24T06:01:10;26.10;;;15.02;;
43678;SDS011;29279;50.858;4.392;2023-04-24T06:03:37;33.53;;;14.77;;
43678;SDS011;29279;50.858;4.392;2023-04-24T06:06:04;28.98;;;14.45;;
43678;SDS011;29279;50.858;4.392;2023-04-24T06:08:31;34.70;;;15.77;;
43678;SDS011;29279;50.858;4.392;2023-04-24T06:10:57;27.20;;;15.38;;
43678;SDS011;29279;50.858;4.392;2023-04-24T06:13:23;35.60;;;15.90;;
43678;SDS011;29279;50.858;4.392;2023-04-24T06:15:49;24.90;;;14.55;;
43678;SDS011;29279;50.858;4.392;2023-04-24T06:18:15;26.58;;;14.45;;
43678;SDS011;29279;50.858;4.392;2023-04-24T06:20:40;30.85;;;14.63;;
43678;SDS011;29279;50.858;4.392;2023-04-24T06:23:06;32.85;;;15.02;;
43678;SDS011;29279;50.858;4.392;2023-04-24T06:25:32;27.40;;;15.60;;
43678;SDS011;29279;50.858;4.392;2023-04-24T06:27:58;30.42;;;15.65;;
43678;SDS011;29279;50.858;4.392;2023-04-24T06:30:24;33.90;;;17.13;;
43678;SDS011;29279;50.858;4.392;2023-04-24T06:32:50;43.42;;;17.17;;
43678;SDS011;29279;50.858;4.392;2023-04-24T06:35:15;33.65;;;16.48;;
43678;SDS011;29279;50.858;4.392;2023-04-24T06:37:42;41.03;;;17.45;;
43678;SDS011;29279;50.858;4.392;2023-04-24T06:40:08;35.40;;;17.35;;
43678;SDS011;29279;50.858;4.392;2023-04-24T06:42:35;40.75;;;16.85;;
43678;SDS011;29279;50.858;4.392;2023-04-24T06:45:01;34.50;;;17.73;;
43678;SDS011;29279;50.858;4.392;2023-04-24T06:47:27;39.50;;;18.45;;
43678;SDS011;29279;50.858;4.392;2023-04-24T06:49:53;33.90;;;17.80;;
43678;SDS011;29279;50.858;4.392;2023-04-24T06:52:20;41.63;;;18.58;;
43678;SDS011;29279;50.858;4.392;2023-04-24T06:54:45;41.53;;;18.10;;
43678;SDS011;29279;50.858;4.392;2023-04-24T06:57:11;32.80;;;18.60;;
43678;SDS011;29279;50.858;4.392;2023-04-24T06:59:37;42.55;;;18.98;;
43678;SDS011;29279;50.858;4.392;2023-04-24T07:02:03;35.50;;;18.63;;
43678;SDS011;29279;50.858;4.392;2023-04-24T07:04:29;43.97;;;19.52;;
43678;SDS011;29279;50.858;4.392;2023-04-24T07:06:55;33.97;;;19.23;;
43678;SDS011;29279;50.858;4.392;2023-04-24T07:09:21;40.97;;;19.38;;
43678;SDS011;29279;50.858;4.392;2023-04-24T07:11:48;32.90;;;19.63;;
43678;SDS011;29279;50.858;4.392;2023-04-24T07:14:15;38.28;;;19.17;;
43678;SDS011;29279;50.858;4.392;2023-04-24T07:16:41;49.28;;;19.83;;
43678;SDS011;29279;50.858;4.392;2023-04-24T07:19:07;35.80;;;17.77;;
43678;SDS011;29279;50.858;4.392;2023-04-24T07:21:33;34.20;;;15.68;;
43678;SDS011;29279;50.858;4.392;2023-04-24T07:23:58;38.10;;;17.27;;
43678;SDS011;29279;50.858;4.392;2023-04-24T07:26:25;36.00;;;16.27;;
43678;SDS011;29279;50.858;4.392;2023-04-24T07:28:51;31.60;;;14.73;;
43678;SDS011;29279;50.858;4.392;2023-04-24T07:31:18;42.85;;;15.88;;
43678;SDS011;29279;50.858;4.392;2023-04-24T07:33:43;33.03;;;14.73;;
43678;SDS011;29279;50.858;4.392;2023-04-24T07:36:09;27.73;;;12.05;;
43678;SDS011;29279;50.858;4.392;2023-04-24T07:38:40;30.38;;;12.25;;
43678;SDS011;29279;50.858;4.392;2023-04-24T07:41:07;23.25;;;13.10;;
43678;SDS011;29279;50.858;4.392;2023-04-24T07:43:32;23.92;;;11.50;;
43678;SDS011;29279;50.858;4.392;2023-04-24T07:45:58;19.30;;;10.85;;
43678;SDS011;29279;50.858;4.392;2023-04-24T07:48:24;25.60;;;11.82;;
43678;SDS011;29279;50.858;4.392;2023-04-24T07:50:52;20.88;;;10.95;;
43678;SDS011;29279;50.858;4.392;2023-04-24T07:53:18;25.85;;;12.43;;
43678;SDS011;29279;50.858;4.392;2023-04-24T07:55:43;22.15;;;11.48;;
43678;SDS011;29279;50.858;4.392;2023-04-24T07:58:09;31.38;;;13.93;;
43678;SDS011;29279;50.858;4.392;2023-04-24T08:00:35;34.10;;;14.02;;
43678;SDS011;29279;50.858;4.392;2023-04-24T08:03:01;28.80;;;13.55;;
43678;SDS011;29279;50.858;4.392;2023-04-24T08:05:27;33.45;;;13.77;;
43678;SDS011;29279;50.858;4.392;2023-04-24T08:07:54;31.25;;;12.57;;
43678;SDS011;29279;50.858;4.392;2023-04-24T08:10:23;29.65;;;11.65;;
43678;SDS011;29279;50.858;4.392;2023-04-24T08:12:50;29.83;;;12.73;;
43678;SDS011;29279;50.858;4.392;2023-04-24T08:15:16;36.10;;;12.32;;
43678;SDS011;29279;50.858;4.392;2023-04-24T08:17:42;33.20;;;12.57;;
43678;SDS011;29279;50.858;4.392;2023-04-24T08:20:08;30.65;;;11.40;;
43678;SDS011;29279;50.858;4.392;2023-04-24T08:22:38;29.25;;;10.32;;
43678;SDS011;29279;50.858;4.392;2023-04-24T08:25:05;27.98;;;9.63;;
43678;SDS011;29279;50.858;4.392;2023-04-24T08:27:31;35.75;;;10.20;;
43678;SDS011;29279;50.858;4.392;2023-04-24T08:29:57;23.17;;;9.13;;
43678;SDS011;29279;50.858;4.392;2023-04-24T08:32:23;24.95;;;10.23;;
43678;SDS011;29279;50.858;4.392;2023-04-24T08:34:49;25.95;;;9.70;;
43678;SDS011;29279;50.858;4.392;2023-04-24T08:37:17;21.58;;;8.77;;
43678;SDS011;29279;50.858;4.392;2023-04-24T08:39:43;23.73;;;7.50;;
43678;SDS011;29279;50.858;4.392;2023-04-24T08:42:09;27.52;;;9.57;;
43678;SDS011;29279;50.858;4.392;2023-04-24T08:44:36;26.00;;;8.90;;
43678;SDS011;29279;50.858;4.392;2023-04-24T08:47:02;23.10;;;8.90;;
43678;SDS011;29279;50.858;4.392;2023-04-24T08:49:28;22.50;;;8.60;;
43678;SDS011;29279;50.858;4.392;2023-04-24T08:51:54;23.85;;;6.97;;
43678;SDS011;29279;50.858;4.392;2023-04-24T08:54:20;21.40;;;7.40;;
43678;SDS011;29279;50.858;4.392;2023-04-24T08:56:47;20.70;;;7.18;;
43678;SDS011;29279;50.858;4.392;2023-04-24T08:59:14;16.10;;;6.93;;
43678;SDS011;29279;50.858;4.392;2023-04-24T09:01:40;25.80;;;7.25;;
43678;SDS011;29279;50.858;4.392;2023-04-24T09:04:07;15.55;;;6.72;;
43678;SDS011;29279;50.858;4.392;2023-04-24T09:06:38;17.55;;;6.40;;
43678;SDS011;29279;50.858;4.392;2023-04-24T09:09:04;21.60;;;6.55;;
43678;SDS011;29279;50.858;4.392;2023-04-24T09:11:31;15.50;;;5.80;;
43678;SDS011;29279;50.858;4.392;2023-04-24T09:13:59;26.05;;;6.70;;
43678;SDS011;29279;50.858;4.392;2023-04-24T09:16:26;19.88;;;6.35;;
43678;SDS011;29279;50.858;4.392;2023-04-24T09:18:52;18.50;;;5.15;;
43678;SDS011;29279;50.858;4.392;2023-04-24T09:21:20;19.15;;;5.32;;
43678;SDS011;29279;50.858;4.392;2023-04-24T09:23:46;14.73;;;5.00;;
43678;SDS011;29279;50.858;4.392;2023-04-24T09:26:22;16.02;;;4.53;;
43678;SDS011;29279;50.858;4.392;2023-04-24T09:28:48;13.18;;;5.40;;
43678;SDS011;29279;50.858;4.392;2023-04-24T09:31:14;17.60;;;5.30;;
43678;SDS011;29279;50.858;4.392;2023-04-24T09:33:59;16.25;;;6.50;;
43678;SDS011;29279;50.858;4.392;2023-04-24T09:39:07;24.02;;;4.90;;
43678;SDS011;29279;50.858;4.392;2023-04-24T09:41:44;17.80;;;5.13;;
43678;SDS011;29279;50.858;4.392;2023-04-24T09:46:37;22.35;;;5.22;;
43678;SDS011;29279;50.858;4.392;2023-04-24T09:49:10;16.55;;;4.70;;
43678;SDS011;29279;50.858;4.392;2023-04-24T09:51:40;16.35;;;4.47;;
43678;SDS011;29279;50.858;4.392;2023-04-24T09:54:16;14.52;;;4.35;;
43678;SDS011;29279;50.858;4.392;2023-04-24T09:56:45;17.90;;;4.93;;
43678;SDS011;29279;50.858;4.392;2023-04-24T09:59:13;11.15;;;4.03;;
43678;SDS011;29279;50.858;4.392;2023-04-24T10:01:43;11.48;;;3.97;;
43678;SDS011;29279;50.858;4.392;2023-04-24T10:04:20;19.75;;;5.30;;
43678;SDS011;29279;50.858;4.392;2023-04-24T10:06:48;9.07;;;4.38;;
43678;SDS011;29279;50.858;4.392;2023-04-24T10:09:15;19.52;;;5.28;;
43678;SDS011;29279;50.858;4.392;2023-04-24T10:11:42;14.82;;;4.40;;
43678;SDS011;29279;50.858;4.392;2023-04-24T10:14:17;14.40;;;4.85;;
43678;SDS011;29279;50.858;4.392;2023-04-24T10:16:44;12.45;;;4.78;;
43678;SDS011;29279;50.858;4.392;2023-04-24T10:19:12;11.75;;;4.30;;
43678;SDS011;29279;50.858;4.392;2023-04-24T10:21:38;13.40;;;3.85;;
43678;SDS011;29279;50.858;4.392;2023-04-24T10:24:08;11.82;;;4.63;;
43678;SDS011;29279;50.858;4.392;2023-04-24T10:26:35;13.68;;;4.70;;
43678;SDS011;29279;50.858;4.392;2023-04-24T10:29:01;14.68;;;4.93;;
43678;SDS011;29279;50.858;4.392;2023-04-24T10:31:28;17.85;;;5.90;;
43678;SDS011;29279;50.858;4.392;2023-04-24T10:33:57;16.65;;;6.03;;
43678;SDS011;29279;50.858;4.392;2023-04-24T10:36:25;10.77;;;4.30;;
43678;SDS011;29279;50.858;4.392;2023-04-24T10:38:52;11.95;;;4.43;;
43678;SDS011;29279;50.858;4.392;2023-04-24T10:41:20;12.18;;;4.90;;
43678;SDS011;29279;50.858;4.392;2023-04-24T10:43:48;12.80;;;4.38;;
43678;SDS011;29279;50.858;4.392;2023-04-24T10:46:29;14.02;;;5.20;;
43678;SDS011;29279;50.858;4.392;2023-04-24T10:48:55;11.30;;;4.30;;
43678;SDS011;29279;50.858;4.392;2023-04-24T10:51:23;13.95;;;4.55;;
43678;SDS011;29279;50.858;4.392;2023-04-24T10:53:49;10.25;;;4.93;;
43678;SDS011;29279;50.858;4.392;2023-04-24T10:56:16;12.98;;;5.03;;
43678;SDS011;29279;50.858;4.392;2023-04-24T10:58:49;16.38;;;5.43;;
43678;SDS011;29279;50.858;4.392;2023-04-24T11:01:27;17.13;;;5.57;;
43678;SDS011;29279;50.858;4.392;2023-04-24T11:03:55;13.20;;;5.25;;
43678;SDS011;29279;50.858;4.392;2023-04-24T11:06:37;11.38;;;4.65;;
43678;SDS011;29279;50.858;4.392;2023-04-24T11:11:30;12.82;;;5.30;;
43678;SDS011;29279;50.858;4.392;2023-04-24T11:19:02;21.92;;;6.30;;
43678;SDS011;29279;50.858;4.392;2023-04-24T11:21:39;13.57;;;5.72;;
43678;SDS011;29279;50.858;4.392;2023-04-24T11:35:07;13.27;;;5.50;;
43678;SDS011;29279;50.858;4.392;2023-04-24T11:37:35;12.32;;;4.88;;
43678;SDS011;29279;50.858;4.392;2023-04-24T11:40:01;14.40;;;5.20;;
43678;SDS011;29279;50.858;4.392;2023-04-24T11:42:29;9.65;;;4.68;;
43678;SDS011;29279;50.858;4.392;2023-04-24T11:45:07;17.08;;;4.57;;
43678;SDS011;29279;50.858;4.392;2023-04-24T11:47:34;11.63;;;4.43;;
43678;SDS011;29279;50.858;4.392;2023-04-24T11:50:00;13.38;;;5.13;;
43678;SDS011;29279;50.858;4.392;2023-04-24T11:52:26;15.75;;;5.88;;
43678;SDS011;29279;50.858;4.392;2023-04-24T11:54:52;17.80;;;4.90;;
43678;SDS011;29279;50.858;4.392;2023-04-24T11:57:19;12.15;;;5.45;;
43678;SDS011;29279;50.858;4.392;2023-04-24T11:59:45;14.07;;;5.93;;
43678;SDS011;29279;50.858;4.392;2023-04-24T12:04:47;13.93;;;4.43;;
43678;SDS011;29279;50.858;4.392;2023-04-24T12:07:13;10.38;;;5.32;;
43678;SDS011;29279;50.858;4.392;2023-04-24T12:12:08;12.73;;;5.10;;
43678;SDS011;29279;50.858;4.392;2023-04-24T12:17:34;18.45;;;6.05;;
43678;SDS011;29279;50.858;4.392;2023-04-24T12:20:05;8.20;;;4.03;;
43678;SDS011;29279;50.858;4.392;2023-04-24T12:22:52;14.85;;;5.93;;
43678;SDS011;29279;50.858;4.392;2023-04-24T12:25:20;11.00;;;4.93;;
43678;SDS011;29279;50.858;4.392;2023-04-24T12:30:28;7.60;;;4.20;;
43678;SDS011;29279;50.858;4.392;2023-04-24T12:32:59;8.15;;;4.10;;
43678;SDS011;29279;50.858;4.392;2023-04-24T12:35:27;8.38;;;4.00;;
43678;SDS011;29279;50.858;4.392;2023-04-24T12:37:54;8.70;;;4.10;;
43678;SDS011;29279;50.858;4.392;2023-04-24T12:40:20;10.35;;;4.18;;
43678;SDS011;29279;50.858;4.392;2023-04-24T12:42:48;8.25;;;3.95;;
43678;SDS011;29279;50.858;4.392;2023-04-24T12:45:15;12.07;;;4.28;;
43678;SDS011;29279;50.858;4.392;2023-04-24T12:47:43;12.23;;;4.00;;
43678;SDS011;29279;50.858;4.392;2023-04-24T12:50:10;9.85;;;3.95;;
43678;SDS011;29279;50.858;4.392;2023-04-24T12:52:37;9.85;;;3.58;;
43678;SDS011;29279;50.858;4.392;2023-04-24T12:55:04;9.95;;;3.72;;
43678;SDS011;29279;50.858;4.392;2023-04-24T12:57:33;10.20;;;3.72;;
43678;SDS011;29279;50.858;4.392;2023-04-24T13:00:00;10.98;;;4.00;;
43678;SDS011;29279;50.858;4.392;2023-04-24T13:02:27;9.32;;;3.90;;
43678;SDS011;29279;50.858;4.392;2023-04-24T13:04:55;8.77;;;3.28;;
43678;SDS011;29279;50.858;4.392;2023-04-24T13:07:21;11.68;;;3.95;;
43678;SDS011;29279;50.858;4.392;2023-04-24T13:09:47;6.55;;;3.55;;
43678;SDS011;29279;50.858;4.392;2023-04-24T13:12:14;7.55;;;3.45;;
43678;SDS011;29279;50.858;4.392;2023-04-24T13:14:40;11.63;;;4.18;;
43678;SDS011;29279;50.858;4.392;2023-04-24T13:17:06;11.20;;;3.58;;
43678;SDS011;29279;50.858;4.392;2023-04-24T13:19:37;7.38;;;3.30;;
43678;SDS011;29279;50.858;4.392;2023-04-24T13:22:03;7.22;;;3.15;;
43678;SDS011;29279;50.858;4.392;2023-04-24T13:24:29;7.95;;;3.10;;
43678;SDS011;29279;50.858;4.392;2023-04-24T13:26:56;9.18;;;3.60;;
43678;SDS011;29279;50.858;4.392;2023-04-24T13:29:22;14.10;;;3.63;;
43678;SDS011;29279;50.858;4.392;2023-04-24T13:31:49;8.23;;;2.90;;
43678;SDS011;29279;50.858;4.392;2023-04-24T13:34:17;9.18;;;3.00;;
43678;SDS011;29279;50.858;4.392;2023-04-24T13:36:43;6.00;;;3.05;;
43678;SDS011;29279;50.858;4.392;2023-04-24T13:39:09;10.05;;;3.20;;
43678;SDS011;29279;50.858;4.392;2023-04-24T13:41:35;11.23;;;3.30;;
43678;SDS011;29279;50.858;4.392;2023-04-24T13:44:01;9.02;;;3.00;;
43678;SDS011;29279;50.858;4.392;2023-04-24T13:46:28;11.68;;;2.92;;
43678;SDS011;29279;50.858;4.392;2023-04-24T13:48:53;8.27;;;2.88;;
43678;SDS011;29279;50.858;4.392;2023-04-24T13:51:19;9.43;;;3.47;;
43678;SDS011;29279;50.858;4.392;2023-04-24T13:53:45;5.13;;;2.55;;
43678;SDS011;29279;50.858;4.392;2023-04-24T13:56:11;6.70;;;2.55;;
43678;SDS011;29279;50.858;4.392;2023-04-24T13:58:37;11.23;;;2.85;;
43678;SDS011;29279;50.858;4.392;2023-04-24T14:01:03;6.85;;;2.45;;
43678;SDS011;29279;50.858;4.392;2023-04-24T14:03:29;7.75;;;2.65;;
43678;SDS011;29279;50.858;4.392;2023-04-24T14:05:55;9.35;;;2.65;;
43678;SDS011;29279;50.858;4.392;2023-04-24T14:08:21;7.25;;;2.70;;
43678;SDS011;29279;50.858;4.392;2023-04-24T14:10:47;7.80;;;2.13;;
43678;SDS011;29279;50.858;4.392;2023-04-24T14:13:12;6.30;;;2.35;;
43678;SDS011;29279;50.858;4.392;2023-04-24T14:15:38;7.82;;;2.30;;
43678;SDS011;29279;50.858;4.392;2023-04-24T14:18:04;5.43;;;1.73;;
43678;SDS011;29279;50.858;4.392;2023-04-24T14:20:30;6.47;;;2.28;;
43678;SDS011;29279;50.858;4.392;2023-04-24T14:22:56;5.57;;;2.22;;
43678;SDS011;29279;50.858;4.392;2023-04-24T14:25:24;9.68;;;2.30;;
43678;SDS011;29279;50.858;4.392;2023-04-24T14:27:50;6.97;;;2.15;;
43678;SDS011;29279;50.858;4.392;2023-04-24T14:30:16;8.85;;;2.38;;
43678;SDS011;29279;50.858;4.392;2023-04-24T14:32:42;7.72;;;2.17;;
43678;SDS011;29279;50.858;4.392;2023-04-24T14:35:08;9.65;;;2.22;;
43678;SDS011;29279;50.858;4.392;2023-04-24T14:37:33;8.43;;;2.55;;
43678;SDS011;29279;50.858;4.392;2023-04-24T14:40:00;6.57;;;2.20;;
43678;SDS011;29279;50.858;4.392;2023-04-24T14:42:26;8.60;;;1.90;;
43678;SDS011;29279;50.858;4.392;2023-04-24T14:44:53;5.38;;;1.88;;
43678;SDS011;29279;50.858;4.392;2023-04-24T14:47:19;7.20;;;1.90;;
43678;SDS011;29279;50.858;4.392;2023-04-24T14:49:47;9.90;;;2.83;;
43678;SDS011;29279;50.858;4.392;2023-04-24T14:52:15;11.35;;;2.38;;
43678;SDS011;29279;50.858;4.392;2023-04-24T14:54:41;6.63;;;2.20;;
43678;SDS011;29279;50.858;4.392;2023-04-24T14:57:07;10.75;;;2.53;;
43678;SDS011;29279;50.858;4.392;2023-04-24T14:59:33;5.70;;;2.25;;
43678;SDS011;29279;50.858;4.392;2023-04-24T15:01:59;9.38;;;2.20;;